sensor_id;sensor_type;location;lat;lon;timestamp;P1;durP1;ratioP1;P2;durP2;ratioP2
13485;SDS011;6815;59.336;17.998;2022-11-15T00:02:07;2.50;;;1.50;;
13485;SDS011;6815;59.336;17.998;2022-11-15T00:04:33;1.70;;;1.60;;
13485;SDS011;6815;59.336;17.998;2022-11-15T00:06:58;2.43;;;1.50;;
13485;SDS011;6815;59.336;17.998;2022-11-15T00:09:24;1.47;;;1.37;;
13485;SDS011;6815;59.336;17.998;2022-11-15T00:11:50;1.70;;;1.43;;
13485;SDS011;6815;59.336;17.998;2022-11-15T00:14:16;2.47;;;1.33;;
13485;SDS011;6815;59.336;17.998;2022-11-15T00:16:41;1.97;;;1.40;;
13485;SDS011;6815;59.336;17.998;2022-11-15T00:19:07;1.33;;;1.10;;
13485;SDS011;6815;59.336;17.998;2022-11-15T00:21:32;1.60;;;1.50;;
13485;SDS011;6815;59.336;17.998;2022-11-15T00:23:58;1.60;;;1.40;;
13485;SDS011;6815;59.336;17.998;2022-11-15T00:26:23;1.43;;;1.30;;
13485;SDS011;6815;59.336;17.998;2022-11-15T00:28:50;1.73;;;1.20;;
13485;SDS011;6815;59.336;17.998;2022-11-15T00:31:17;1.27;;;1.17;;
13485;SDS011;6815;59.336;17.998;2022-11-15T00:33:44;1.53;;;1.30;;
13485;SDS011;6815;59.336;17.998;2022-11-15T00:36:10;1.23;;;1.13;;
13485;SDS011;6815;59.336;17.998;2022-11-15T00:38:37;1.67;;;1.57;;
13485;SDS011;6815;59.336;17.998;2022-11-15T00:41:04;1.47;;;1.30;;
13485;SDS011;6815;59.336;17.998;2022-11-15T00:43:31;1.27;;;1.17;;
13485;SDS011;6815;59.336;17.998;2022-11-15T00:45:56;1.40;;;1.30;;
13485;SDS011;6815;59.336;17.998;2022-11-15T00:48:22;2.20;;;1.17;;
13485;SDS011;6815;59.336;17.998;2022-11-15T00:50:48;1.30;;;1.13;;
13485;SDS011;6815;59.336;17.998;2022-11-15T00:53:14;1.50;;;1.33;;
13485;SDS011;6815;59.336;17.998;2022-11-15T00:55:40;1.40;;;1.30;;
13485;SDS011;6815;59.336;17.998;2022-11-15T00:58:06;1.53;;;1.43;;
13485;SDS011;6815;59.336;17.998;2022-11-15T01:00:32;1.40;;;1.30;;
13485;SDS011;6815;59.336;17.998;2022-11-15T01:02:57;2.17;;;1.50;;
13485;SDS011;6815;59.336;17.998;2022-11-15T01:05:23;1.40;;;1.30;;
13485;SDS011;6815;59.336;17.998;2022-11-15T01:07:55;1.70;;;1.60;;
13485;SDS011;6815;59.336;17.998;2022-11-15T01:10:21;1.30;;;1.20;;
13485;SDS011;6815;59.336;17.998;2022-11-15T01:12:48;2.17;;;1.30;;
13485;SDS011;6815;59.336;17.998;2022-11-15T01:15:13;1.63;;;1.30;;
13485;SDS011;6815;59.336;17.998;2022-11-15T01:17:39;1.53;;;1.20;;
13485;SDS011;6815;59.336;17.998;2022-11-15T01:20:04;1.67;;;1.57;;
13485;SDS011;6815;59.336;17.998;2022-11-15T01:22:32;1.50;;;1.40;;
13485;SDS011;6815;59.336;17.998;2022-11-15T01:24:57;1.90;;;1.70;;
13485;SDS011;6815;59.336;17.998;2022-11-15T01:27:23;1.50;;;1.40;;
13485;SDS011;6815;59.336;17.998;2022-11-15T01:29:48;1.93;;;1.50;;
13485;SDS011;6815;59.336;17.998;2022-11-15T01:32:14;1.30;;;1.20;;
13485;SDS011;6815;59.336;17.998;2022-11-15T01:34:39;1.57;;;1.20;;
13485;SDS011;6815;59.336;17.998;2022-11-15T01:37:05;1.40;;;1.30;;
13485;SDS011;6815;59.336;17.998;2022-11-15T01:39:30;1.20;;;1.10;;
13485;SDS011;6815;59.336;17.998;2022-11-15T01:41:56;1.30;;;1.20;;
13485;SDS011;6815;59.336;17.998;2022-11-15T01:46:56;2.10;;;1.60;;
13485;SDS011;6815;59.336;17.998;2022-11-15T01:49:24;1.27;;;1.13;;
13485;SDS011;6815;59.336;17.998;2022-11-15T01:51:52;3.50;;;1.13;;
13485;SDS011;6815;59.336;17.998;2022-11-15T01:54:19;1.53;;;0.90;;
13485;SDS011;6815;59.336;17.998;2022-11-15T01:56:49;1.27;;;0.80;;
13485;SDS011;6815;59.336;17.998;2022-11-15T01:59:18;0.90;;;0.70;;
13485;SDS011;6815;59.336;17.998;2022-11-15T02:01:44;0.70;;;0.70;;
13485;SDS011;6815;59.336;17.998;2022-11-15T02:04:12;0.73;;;0.73;;
13485;SDS011;6815;59.336;17.998;2022-11-15T02:06:42;1.13;;;0.70;;
13485;SDS011;6815;59.336;17.998;2022-11-15T02:09:09;1.00;;;0.90;;
13485;SDS011;6815;59.336;17.998;2022-11-15T02:11:36;1.20;;;0.70;;
13485;SDS011;6815;59.336;17.998;2022-11-15T02:14:02;1.07;;;0.90;;
13485;SDS011;6815;59.336;17.998;2022-11-15T02:22:10;1.40;;;1.10;;
13485;SDS011;6815;59.336;17.998;2022-11-15T02:30:23;1.77;;;1.40;;
13485;SDS011;6815;59.336;17.998;2022-11-15T02:32:55;2.00;;;1.77;;
13485;SDS011;6815;59.336;17.998;2022-11-15T02:38:34;3.40;;;2.03;;
13485;SDS011;6815;59.336;17.998;2022-11-15T02:41:43;5.03;;;2.37;;
13485;SDS011;6815;59.336;17.998;2022-11-15T02:47:07;3.10;;;2.27;;
13485;SDS011;6815;59.336;17.998;2022-11-15T02:49:41;3.07;;;2.43;;
13485;SDS011;6815;59.336;17.998;2022-11-15T02:52:17;2.80;;;2.07;;
13485;SDS011;6815;59.336;17.998;2022-11-15T02:54:52;2.23;;;1.97;;
13485;SDS011;6815;59.336;17.998;2022-11-15T02:57:19;2.23;;;2.03;;
13485;SDS011;6815;59.336;17.998;2022-11-15T03:00:05;2.43;;;2.23;;
13485;SDS011;6815;59.336;17.998;2022-11-15T03:08:10;2.50;;;2.20;;
13485;SDS011;6815;59.336;17.998;2022-11-15T03:11:07;1.70;;;1.50;;
13485;SDS011;6815;59.336;17.998;2022-11-15T03:13:35;1.90;;;1.60;;
13485;SDS011;6815;59.336;17.998;2022-11-15T03:19:04;2.00;;;1.77;;
13485;SDS011;6815;59.336;17.998;2022-11-15T03:21:37;2.10;;;1.70;;
13485;SDS011;6815;59.336;17.998;2022-11-15T03:24:05;1.67;;;1.57;;
13485;SDS011;6815;59.336;17.998;2022-11-15T03:26:33;1.80;;;1.50;;
13485;SDS011;6815;59.336;17.998;2022-11-15T03:29:06;2.17;;;1.80;;
13485;SDS011;6815;59.336;17.998;2022-11-15T03:31:46;1.90;;;1.67;;
13485;SDS011;6815;59.336;17.998;2022-11-15T03:34:26;1.40;;;1.30;;
13485;SDS011;6815;59.336;17.998;2022-11-15T03:36:56;1.43;;;1.33;;
13485;SDS011;6815;59.336;17.998;2022-11-15T03:39:21;1.43;;;1.20;;
13485;SDS011;6815;59.336;17.998;2022-11-15T03:45:10;2.97;;;1.40;;
13485;SDS011;6815;59.336;17.998;2022-11-15T03:48:01;2.50;;;1.30;;
13485;SDS011;6815;59.336;17.998;2022-11-15T03:50:47;1.50;;;1.40;;
13485;SDS011;6815;59.336;17.998;2022-11-15T03:53:13;1.70;;;1.60;;
13485;SDS011;6815;59.336;17.998;2022-11-15T03:55:39;1.50;;;1.40;;
13485;SDS011;6815;59.336;17.998;2022-11-15T03:58:05;1.93;;;1.60;;
13485;SDS011;6815;59.336;17.998;2022-11-15T04:00:30;2.67;;;2.17;;
13485;SDS011;6815;59.336;17.998;2022-11-15T04:02:56;2.63;;;1.93;;
13485;SDS011;6815;59.336;17.998;2022-11-15T04:05:22;2.13;;;1.93;;
13485;SDS011;6815;59.336;17.998;2022-11-15T04:07:47;2.33;;;1.90;;
13485;SDS011;6815;59.336;17.998;2022-11-15T04:10:13;2.50;;;1.73;;
13485;SDS011;6815;59.336;17.998;2022-11-15T04:12:41;2.17;;;1.83;;
13485;SDS011;6815;59.336;17.998;2022-11-15T04:15:09;2.20;;;2.00;;
13485;SDS011;6815;59.336;17.998;2022-11-15T04:17:40;2.33;;;2.07;;
13485;SDS011;6815;59.336;17.998;2022-11-15T04:23:12;2.10;;;1.90;;
13485;SDS011;6815;59.336;17.998;2022-11-15T04:26:02;1.90;;;1.70;;
13485;SDS011;6815;59.336;17.998;2022-11-15T04:28:29;1.70;;;1.57;;
13485;SDS011;6815;59.336;17.998;2022-11-15T04:30:55;2.30;;;1.53;;
13485;SDS011;6815;59.336;17.998;2022-11-15T04:33:21;2.87;;;1.73;;
13485;SDS011;6815;59.336;17.998;2022-11-15T04:35:47;1.60;;;1.50;;
13485;SDS011;6815;59.336;17.998;2022-11-15T04:38:33;1.60;;;1.50;;
13485;SDS011;6815;59.336;17.998;2022-11-15T04:41:00;1.40;;;1.30;;
13485;SDS011;6815;59.336;17.998;2022-11-15T04:43:26;1.70;;;1.60;;
13485;SDS011;6815;59.336;17.998;2022-11-15T04:45:55;2.17;;;1.80;;
13485;SDS011;6815;59.336;17.998;2022-11-15T04:48:20;1.97;;;1.50;;
13485;SDS011;6815;59.336;17.998;2022-11-15T04:50:49;2.23;;;1.60;;
13485;SDS011;6815;59.336;17.998;2022-11-15T04:53:14;2.50;;;1.63;;
13485;SDS011;6815;59.336;17.998;2022-11-15T04:55:43;2.10;;;1.53;;
13485;SDS011;6815;59.336;17.998;2022-11-15T04:58:09;1.93;;;1.73;;
13485;SDS011;6815;59.336;17.998;2022-11-15T05:00:35;3.77;;;2.00;;
13485;SDS011;6815;59.336;17.998;2022-11-15T05:03:00;2.70;;;1.80;;
13485;SDS011;6815;59.336;17.998;2022-11-15T05:05:44;2.00;;;1.80;;
13485;SDS011;6815;59.336;17.998;2022-11-15T05:08:10;2.10;;;1.90;;
13485;SDS011;6815;59.336;17.998;2022-11-15T05:10:35;1.90;;;1.60;;
13485;SDS011;6815;59.336;17.998;2022-11-15T05:13:00;3.00;;;2.00;;
13485;SDS011;6815;59.336;17.998;2022-11-15T05:15:26;3.57;;;2.20;;
13485;SDS011;6815;59.336;17.998;2022-11-15T05:17:56;3.40;;;2.20;;
13485;SDS011;6815;59.336;17.998;2022-11-15T05:20:22;2.63;;;1.90;;
13485;SDS011;6815;59.336;17.998;2022-11-15T05:22:48;3.27;;;2.30;;
13485;SDS011;6815;59.336;17.998;2022-11-15T05:25:13;3.43;;;2.00;;
13485;SDS011;6815;59.336;17.998;2022-11-15T05:27:38;2.93;;;2.30;;
13485;SDS011;6815;59.336;17.998;2022-11-15T05:30:04;4.60;;;2.20;;
13485;SDS011;6815;59.336;17.998;2022-11-15T05:32:30;5.07;;;2.10;;
13485;SDS011;6815;59.336;17.998;2022-11-15T05:34:56;3.37;;;2.47;;
13485;SDS011;6815;59.336;17.998;2022-11-15T05:37:21;3.47;;;2.17;;
13485;SDS011;6815;59.336;17.998;2022-11-15T05:39:47;2.80;;;1.97;;
13485;SDS011;6815;59.336;17.998;2022-11-15T05:42:13;2.60;;;2.30;;
13485;SDS011;6815;59.336;17.998;2022-11-15T05:44:41;3.07;;;1.93;;
13485;SDS011;6815;59.336;17.998;2022-11-15T05:47:11;5.07;;;2.00;;
13485;SDS011;6815;59.336;17.998;2022-11-15T05:49:42;6.57;;;2.00;;
13485;SDS011;6815;59.336;17.998;2022-11-15T05:52:10;5.70;;;2.10;;
13485;SDS011;6815;59.336;17.998;2022-11-15T05:54:41;3.30;;;1.70;;
13485;SDS011;6815;59.336;17.998;2022-11-15T05:57:07;3.77;;;2.10;;
13485;SDS011;6815;59.336;17.998;2022-11-15T05:59:33;2.30;;;1.93;;
13485;SDS011;6815;59.336;17.998;2022-11-15T06:01:59;3.03;;;2.10;;
13485;SDS011;6815;59.336;17.998;2022-11-15T06:04:25;5.03;;;1.83;;
13485;SDS011;6815;59.336;17.998;2022-11-15T06:06:50;3.57;;;1.63;;
13485;SDS011;6815;59.336;17.998;2022-11-15T06:09:16;2.97;;;1.80;;
13485;SDS011;6815;59.336;17.998;2022-11-15T06:11:41;4.33;;;1.50;;
13485;SDS011;6815;59.336;17.998;2022-11-15T06:14:07;3.53;;;1.30;;
13485;SDS011;6815;59.336;17.998;2022-11-15T06:16:32;3.87;;;1.50;;
13485;SDS011;6815;59.336;17.998;2022-11-15T06:18:57;2.30;;;1.53;;
13485;SDS011;6815;59.336;17.998;2022-11-15T06:21:23;2.27;;;1.20;;
13485;SDS011;6815;59.336;17.998;2022-11-15T06:23:49;2.63;;;1.03;;
13485;SDS011;6815;59.336;17.998;2022-11-15T06:26:14;2.27;;;1.10;;
13485;SDS011;6815;59.336;17.998;2022-11-15T06:28:39;2.40;;;1.10;;
13485;SDS011;6815;59.336;17.998;2022-11-15T06:31:06;1.83;;;0.80;;
13485;SDS011;6815;59.336;17.998;2022-11-15T06:33:33;3.33;;;1.07;;
13485;SDS011;6815;59.336;17.998;2022-11-15T06:36:01;3.53;;;1.07;;
13485;SDS011;6815;59.336;17.998;2022-11-15T06:38:27;2.07;;;1.00;;
13485;SDS011;6815;59.336;17.998;2022-11-15T06:40:53;2.00;;;1.03;;
13485;SDS011;6815;59.336;17.998;2022-11-15T06:43:19;3.90;;;1.57;;
13485;SDS011;6815;59.336;17.998;2022-11-15T06:45:47;2.10;;;1.10;;
13485;SDS011;6815;59.336;17.998;2022-11-15T06:48:16;4.07;;;1.20;;
13485;SDS011;6815;59.336;17.998;2022-11-15T06:50:41;2.23;;;1.00;;
13485;SDS011;6815;59.336;17.998;2022-11-15T06:53:09;2.53;;;1.27;;
13485;SDS011;6815;59.336;17.998;2022-11-15T06:55:43;1.97;;;1.10;;
13485;SDS011;6815;59.336;17.998;2022-11-15T06:58:09;2.23;;;1.23;;
13485;SDS011;6815;59.336;17.998;2022-11-15T07:00:34;2.57;;;1.20;;
13485;SDS011;6815;59.336;17.998;2022-11-15T07:03:00;2.57;;;0.97;;
13485;SDS011;6815;59.336;17.998;2022-11-15T07:05:27;3.30;;;1.30;;
13485;SDS011;6815;59.336;17.998;2022-11-15T07:07:53;3.87;;;1.20;;
13485;SDS011;6815;59.336;17.998;2022-11-15T07:10:20;2.73;;;1.20;;
13485;SDS011;6815;59.336;17.998;2022-11-15T07:12:47;2.20;;;1.30;;
13485;SDS011;6815;59.336;17.998;2022-11-15T07:15:14;4.13;;;1.30;;
13485;SDS011;6815;59.336;17.998;2022-11-15T07:17:40;2.87;;;1.27;;
13485;SDS011;6815;59.336;17.998;2022-11-15T07:20:09;2.83;;;1.07;;
13485;SDS011;6815;59.336;17.998;2022-11-15T07:22:45;2.43;;;1.00;;
13485;SDS011;6815;59.336;17.998;2022-11-15T07:25:10;3.40;;;1.27;;
13485;SDS011;6815;59.336;17.998;2022-11-15T07:27:36;2.87;;;1.00;;
13485;SDS011;6815;59.336;17.998;2022-11-15T07:30:02;3.67;;;0.90;;
13485;SDS011;6815;59.336;17.998;2022-11-15T07:32:28;3.10;;;1.20;;
13485;SDS011;6815;59.336;17.998;2022-11-15T07:34:53;5.33;;;1.20;;
13485;SDS011;6815;59.336;17.998;2022-11-15T07:37:19;2.70;;;1.10;;
13485;SDS011;6815;59.336;17.998;2022-11-15T07:39:44;1.83;;;1.17;;
13485;SDS011;6815;59.336;17.998;2022-11-15T07:42:11;2.57;;;1.10;;
13485;SDS011;6815;59.336;17.998;2022-11-15T07:44:55;3.20;;;1.20;;
13485;SDS011;6815;59.336;17.998;2022-11-15T07:47:21;6.53;;;1.20;;
13485;SDS011;6815;59.336;17.998;2022-11-15T07:49:46;3.03;;;1.13;;
13485;SDS011;6815;59.336;17.998;2022-11-15T07:52:12;3.13;;;1.30;;
13485;SDS011;6815;59.336;17.998;2022-11-15T07:54:45;2.77;;;1.00;;
13485;SDS011;6815;59.336;17.998;2022-11-15T07:57:10;3.43;;;1.20;;
13485;SDS011;6815;59.336;17.998;2022-11-15T07:59:36;4.20;;;1.47;;
13485;SDS011;6815;59.336;17.998;2022-11-15T08:02:01;4.73;;;0.93;;
13485;SDS011;6815;59.336;17.998;2022-11-15T08:04:27;4.80;;;1.40;;
13485;SDS011;6815;59.336;17.998;2022-11-15T08:06:52;5.90;;;1.60;;
13485;SDS011;6815;59.336;17.998;2022-11-15T08:09:18;3.37;;;1.43;;
13485;SDS011;6815;59.336;17.998;2022-11-15T08:11:43;4.90;;;1.77;;
13485;SDS011;6815;59.336;17.998;2022-11-15T08:14:09;3.77;;;1.83;;
13485;SDS011;6815;59.336;17.998;2022-11-15T08:16:34;1.80;;;1.17;;
13485;SDS011;6815;59.336;17.998;2022-11-15T08:19:01;1.93;;;1.20;;
13485;SDS011;6815;59.336;17.998;2022-11-15T08:21:27;4.07;;;1.30;;
13485;SDS011;6815;59.336;17.998;2022-11-15T08:23:52;5.17;;;2.00;;
13485;SDS011;6815;59.336;17.998;2022-11-15T08:28:47;3.87;;;1.70;;
13485;SDS011;6815;59.336;17.998;2022-11-15T08:31:13;2.20;;;1.40;;
13485;SDS011;6815;59.336;17.998;2022-11-15T08:33:41;7.50;;;1.80;;
13485;SDS011;6815;59.336;17.998;2022-11-15T08:36:10;3.03;;;1.63;;
13485;SDS011;6815;59.336;17.998;2022-11-15T08:38:38;3.73;;;1.37;;
13485;SDS011;6815;59.336;17.998;2022-11-15T08:41:03;4.90;;;1.40;;
13485;SDS011;6815;59.336;17.998;2022-11-15T08:43:29;4.73;;;1.13;;
13485;SDS011;6815;59.336;17.998;2022-11-15T08:45:58;2.27;;;0.90;;
13485;SDS011;6815;59.336;17.998;2022-11-15T08:48:24;3.77;;;1.30;;
13485;SDS011;6815;59.336;17.998;2022-11-15T08:50:53;3.90;;;1.10;;
13485;SDS011;6815;59.336;17.998;2022-11-15T08:53:26;3.47;;;1.20;;
13485;SDS011;6815;59.336;17.998;2022-11-15T08:55:52;4.40;;;1.10;;
13485;SDS011;6815;59.336;17.998;2022-11-15T08:58:17;4.07;;;1.07;;
13485;SDS011;6815;59.336;17.998;2022-11-15T09:00:43;2.50;;;0.80;;
13485;SDS011;6815;59.336;17.998;2022-11-15T09:03:08;2.40;;;0.90;;
13485;SDS011;6815;59.336;17.998;2022-11-15T09:05:35;2.80;;;1.00;;
13485;SDS011;6815;59.336;17.998;2022-11-15T09:08:02;3.67;;;1.10;;
13485;SDS011;6815;59.336;17.998;2022-11-15T09:10:28;2.70;;;0.90;;
13485;SDS011;6815;59.336;17.998;2022-11-15T09:12:53;2.87;;;0.80;;
13485;SDS011;6815;59.336;17.998;2022-11-15T09:15:19;3.67;;;1.00;;
13485;SDS011;6815;59.336;17.998;2022-11-15T09:17:44;3.63;;;1.30;;
13485;SDS011;6815;59.336;17.998;2022-11-15T09:20:10;2.60;;;0.90;;
13485;SDS011;6815;59.336;17.998;2022-11-15T09:22:36;4.53;;;1.10;;
13485;SDS011;6815;59.336;17.998;2022-11-15T09:25:03;4.87;;;1.30;;
13485;SDS011;6815;59.336;17.998;2022-11-15T09:27:29;1.87;;;0.87;;
13485;SDS011;6815;59.336;17.998;2022-11-15T09:29:55;3.23;;;1.03;;
13485;SDS011;6815;59.336;17.998;2022-11-15T09:32:20;1.63;;;0.97;;
13485;SDS011;6815;59.336;17.998;2022-11-15T09:34:48;2.67;;;0.90;;
13485;SDS011;6815;59.336;17.998;2022-11-15T09:37:13;2.80;;;0.90;;
13485;SDS011;6815;59.336;17.998;2022-11-15T09:39:40;2.00;;;0.70;;
13485;SDS011;6815;59.336;17.998;2022-11-15T09:44:56;2.80;;;0.70;;
13485;SDS011;6815;59.336;17.998;2022-11-15T09:50:19;3.03;;;1.03;;
13485;SDS011;6815;59.336;17.998;2022-11-15T09:53:13;4.13;;;0.70;;
13485;SDS011;6815;59.336;17.998;2022-11-15T09:56:05;3.17;;;1.00;;
13485;SDS011;6815;59.336;17.998;2022-11-15T10:01:14;2.40;;;1.17;;
13485;SDS011;6815;59.336;17.998;2022-11-15T10:03:43;1.77;;;0.70;;
13485;SDS011;6815;59.336;17.998;2022-11-15T10:06:15;2.07;;;0.90;;
13485;SDS011;6815;59.336;17.998;2022-11-15T10:11:27;3.47;;;1.30;;
13485;SDS011;6815;59.336;17.998;2022-11-15T10:14:00;2.67;;;0.90;;
13485;SDS011;6815;59.336;17.998;2022-11-15T10:24:23;2.20;;;1.20;;
13485;SDS011;6815;59.336;17.998;2022-11-15T10:26:53;2.27;;;1.03;;
13485;SDS011;6815;59.336;17.998;2022-11-15T10:29:20;3.00;;;1.20;;
13485;SDS011;6815;59.336;17.998;2022-11-15T10:31:50;1.90;;;0.80;;
13485;SDS011;6815;59.336;17.998;2022-11-15T10:34:21;1.47;;;0.90;;
13485;SDS011;6815;59.336;17.998;2022-11-15T10:36:55;2.07;;;0.90;;
13485;SDS011;6815;59.336;17.998;2022-11-15T10:39:23;2.87;;;1.20;;
13485;SDS011;6815;59.336;17.998;2022-11-15T10:41:49;3.07;;;1.40;;
13485;SDS011;6815;59.336;17.998;2022-11-15T10:49:22;2.50;;;1.63;;
13485;SDS011;6815;59.336;17.998;2022-11-15T10:54:37;2.17;;;1.37;;
13485;SDS011;6815;59.336;17.998;2022-11-15T10:57:21;2.80;;;1.40;;
13485;SDS011;6815;59.336;17.998;2022-11-15T10:59:51;4.47;;;1.40;;
13485;SDS011;6815;59.336;17.998;2022-11-15T11:05:36;3.67;;;1.50;;
13485;SDS011;6815;59.336;17.998;2022-11-15T11:08:05;5.13;;;1.90;;
13485;SDS011;6815;59.336;17.998;2022-11-15T11:10:37;4.23;;;2.03;;
13485;SDS011;6815;59.336;17.998;2022-11-15T11:13:12;4.07;;;1.73;;
13485;SDS011;6815;59.336;17.998;2022-11-15T11:15:39;3.83;;;1.40;;
13485;SDS011;6815;59.336;17.998;2022-11-15T11:18:10;9.70;;;1.57;;
13485;SDS011;6815;59.336;17.998;2022-11-15T11:20:56;1.77;;;1.10;;
13485;SDS011;6815;59.336;17.998;2022-11-15T11:29:21;2.97;;;1.27;;
13485;SDS011;6815;59.336;17.998;2022-11-15T11:32:20;4.07;;;1.77;;
13485;SDS011;6815;59.336;17.998;2022-11-15T11:35:01;4.57;;;1.73;;
13485;SDS011;6815;59.336;17.998;2022-11-15T11:40:28;3.30;;;1.83;;
13485;SDS011;6815;59.336;17.998;2022-11-15T11:43:18;5.00;;;2.40;;
13485;SDS011;6815;59.336;17.998;2022-11-15T11:46:13;3.20;;;1.60;;
13485;SDS011;6815;59.336;17.998;2022-11-15T11:48:44;3.83;;;1.70;;
13485;SDS011;6815;59.336;17.998;2022-11-15T11:51:17;2.63;;;1.60;;
13485;SDS011;6815;59.336;17.998;2022-11-15T11:53:58;5.47;;;1.40;;
13485;SDS011;6815;59.336;17.998;2022-11-15T11:56:36;4.80;;;1.43;;
13485;SDS011;6815;59.336;17.998;2022-11-15T11:59:10;3.27;;;1.13;;
13485;SDS011;6815;59.336;17.998;2022-11-15T12:01:44;2.30;;;1.50;;
13485;SDS011;6815;59.336;17.998;2022-11-15T12:04:21;3.27;;;1.50;;
13485;SDS011;6815;59.336;17.998;2022-11-15T12:10:33;3.70;;;1.77;;
13485;SDS011;6815;59.336;17.998;2022-11-15T12:15:27;3.03;;;1.50;;
13485;SDS011;6815;59.336;17.998;2022-11-15T12:17:58;2.50;;;1.00;;
13485;SDS011;6815;59.336;17.998;2022-11-15T12:20:27;1.80;;;1.23;;
13485;SDS011;6815;59.336;17.998;2022-11-15T12:22:59;5.03;;;1.70;;
13485;SDS011;6815;59.336;17.998;2022-11-15T12:28:25;4.17;;;1.50;;
13485;SDS011;6815;59.336;17.998;2022-11-15T12:31:19;3.97;;;1.53;;
13485;SDS011;6815;59.336;17.998;2022-11-15T12:33:49;2.90;;;1.77;;
13485;SDS011;6815;59.336;17.998;2022-11-15T12:41:30;2.70;;;1.23;;
13485;SDS011;6815;59.336;17.998;2022-11-15T12:43:59;3.80;;;1.30;;
13485;SDS011;6815;59.336;17.998;2022-11-15T12:49:08;3.33;;;1.30;;
13485;SDS011;6815;59.336;17.998;2022-11-15T12:59:54;1.93;;;1.37;;
13485;SDS011;6815;59.336;17.998;2022-11-15T13:04:52;4.40;;;1.07;;
13485;SDS011;6815;59.336;17.998;2022-11-15T13:17:48;3.57;;;1.47;;
13485;SDS011;6815;59.336;17.998;2022-11-15T13:20:19;4.57;;;2.13;;
13485;SDS011;6815;59.336;17.998;2022-11-15T13:28:49;2.20;;;1.70;;
13485;SDS011;6815;59.336;17.998;2022-11-15T13:31:40;6.03;;;2.20;;
13485;SDS011;6815;59.336;17.998;2022-11-15T13:36:43;5.27;;;1.47;;
13485;SDS011;6815;59.336;17.998;2022-11-15T13:41:55;5.23;;;1.67;;
13485;SDS011;6815;59.336;17.998;2022-11-15T13:44:21;3.70;;;1.47;;
13485;SDS011;6815;59.336;17.998;2022-11-15T13:47:12;2.50;;;1.53;;
13485;SDS011;6815;59.336;17.998;2022-11-15T13:49:39;2.67;;;1.60;;
13485;SDS011;6815;59.336;17.998;2022-11-15T13:52:06;5.97;;;1.40;;
13485;SDS011;6815;59.336;17.998;2022-11-15T13:57:11;6.13;;;1.37;;
13485;SDS011;6815;59.336;17.998;2022-11-15T13:59:47;2.60;;;1.50;;
13485;SDS011;6815;59.336;17.998;2022-11-15T14:02:27;2.70;;;1.47;;
13485;SDS011;6815;59.336;17.998;2022-11-15T14:04:58;3.73;;;1.40;;
13485;SDS011;6815;59.336;17.998;2022-11-15T14:07:27;3.40;;;1.20;;
13485;SDS011;6815;59.336;17.998;2022-11-15T14:09:53;3.23;;;1.60;;
13485;SDS011;6815;59.336;17.998;2022-11-15T14:14:56;3.20;;;1.60;;
13485;SDS011;6815;59.336;17.998;2022-11-15T14:19:53;3.60;;;1.60;;
13485;SDS011;6815;59.336;17.998;2022-11-15T14:22:23;3.47;;;1.30;;
13485;SDS011;6815;59.336;17.998;2022-11-15T14:27:33;3.23;;;1.50;;
13485;SDS011;6815;59.336;17.998;2022-11-15T14:29:58;2.67;;;1.40;;
13485;SDS011;6815;59.336;17.998;2022-11-15T14:32:25;4.43;;;1.30;;
13485;SDS011;6815;59.336;17.998;2022-11-15T14:35:11;3.93;;;1.20;;
13485;SDS011;6815;59.336;17.998;2022-11-15T14:37:39;3.47;;;1.10;;
13485;SDS011;6815;59.336;17.998;2022-11-15T14:40:05;3.77;;;1.23;;
13485;SDS011;6815;59.336;17.998;2022-11-15T14:42:31;3.10;;;1.13;;
13485;SDS011;6815;59.336;17.998;2022-11-15T14:44:57;4.20;;;1.03;;
13485;SDS011;6815;59.336;17.998;2022-11-15T14:47:23;3.03;;;1.00;;
13485;SDS011;6815;59.336;17.998;2022-11-15T14:49:48;3.20;;;1.33;;
13485;SDS011;6815;59.336;17.998;2022-11-15T14:52:24;4.07;;;1.23;;
13485;SDS011;6815;59.336;17.998;2022-11-15T14:54:53;2.40;;;1.00;;
13485;SDS011;6815;59.336;17.998;2022-11-15T14:57:19;4.20;;;1.70;;
13485;SDS011;6815;59.336;17.998;2022-11-15T14:59:45;3.37;;;1.20;;
13485;SDS011;6815;59.336;17.998;2022-11-15T15:02:18;1.87;;;0.97;;
13485;SDS011;6815;59.336;17.998;2022-11-15T15:04:45;5.97;;;1.53;;
13485;SDS011;6815;59.336;17.998;2022-11-15T15:07:11;3.50;;;1.47;;
13485;SDS011;6815;59.336;17.998;2022-11-15T15:09:36;7.93;;;1.57;;
13485;SDS011;6815;59.336;17.998;2022-11-15T15:12:02;4.30;;;1.70;;
13485;SDS011;6815;59.336;17.998;2022-11-15T15:14:29;2.53;;;1.27;;
13485;SDS011;6815;59.336;17.998;2022-11-15T15:16:54;3.10;;;1.03;;
13485;SDS011;6815;59.336;17.998;2022-11-15T15:19:19;1.50;;;0.80;;
13485;SDS011;6815;59.336;17.998;2022-11-15T15:21:45;1.93;;;1.00;;
13485;SDS011;6815;59.336;17.998;2022-11-15T15:24:15;4.43;;;1.20;;
13485;SDS011;6815;59.336;17.998;2022-11-15T15:26:40;3.83;;;1.50;;
13485;SDS011;6815;59.336;17.998;2022-11-15T15:29:06;4.67;;;1.00;;
13485;SDS011;6815;59.336;17.998;2022-11-15T15:31:33;3.30;;;1.10;;
13485;SDS011;6815;59.336;17.998;2022-11-15T15:33:59;1.83;;;1.07;;
13485;SDS011;6815;59.336;17.998;2022-11-15T15:36:25;1.03;;;0.90;;
13485;SDS011;6815;59.336;17.998;2022-11-15T15:38:51;2.90;;;0.93;;
13485;SDS011;6815;59.336;17.998;2022-11-15T15:41:17;2.30;;;1.07;;
13485;SDS011;6815;59.336;17.998;2022-11-15T15:43:43;4.90;;;1.50;;
13485;SDS011;6815;59.336;17.998;2022-11-15T15:46:16;1.90;;;1.17;;
13485;SDS011;6815;59.336;17.998;2022-11-15T15:48:43;2.33;;;0.90;;
13485;SDS011;6815;59.336;17.998;2022-11-15T15:51:09;3.93;;;1.20;;
13485;SDS011;6815;59.336;17.998;2022-11-15T15:53:34;3.90;;;1.63;;
13485;SDS011;6815;59.336;17.998;2022-11-15T15:56:00;2.47;;;1.53;;
13485;SDS011;6815;59.336;17.998;2022-11-15T15:58:26;3.63;;;1.67;;
13485;SDS011;6815;59.336;17.998;2022-11-15T16:00:51;6.03;;;2.00;;
13485;SDS011;6815;59.336;17.998;2022-11-15T16:03:17;4.87;;;1.57;;
13485;SDS011;6815;59.336;17.998;2022-11-15T16:05:43;3.10;;;1.27;;
13485;SDS011;6815;59.336;17.998;2022-11-15T16:08:16;2.43;;;1.13;;
13485;SDS011;6815;59.336;17.998;2022-11-15T16:10:43;1.80;;;1.17;;
13485;SDS011;6815;59.336;17.998;2022-11-15T16:13:09;3.67;;;1.70;;
13485;SDS011;6815;59.336;17.998;2022-11-15T16:15:34;3.57;;;1.57;;
13485;SDS011;6815;59.336;17.998;2022-11-15T16:18:00;3.27;;;1.67;;
13485;SDS011;6815;59.336;17.998;2022-11-15T16:20:37;2.47;;;1.30;;
13485;SDS011;6815;59.336;17.998;2022-11-15T16:23:05;2.33;;;1.23;;
13485;SDS011;6815;59.336;17.998;2022-11-15T16:25:46;2.47;;;1.30;;
13485;SDS011;6815;59.336;17.998;2022-11-15T16:28:16;4.57;;;1.50;;
13485;SDS011;6815;59.336;17.998;2022-11-15T16:30:44;3.10;;;1.57;;
13485;SDS011;6815;59.336;17.998;2022-11-15T16:33:10;4.17;;;1.70;;
13485;SDS011;6815;59.336;17.998;2022-11-15T16:35:36;3.20;;;1.60;;
13485;SDS011;6815;59.336;17.998;2022-11-15T16:38:01;2.13;;;1.30;;
13485;SDS011;6815;59.336;17.998;2022-11-15T16:40:30;2.80;;;1.63;;
13485;SDS011;6815;59.336;17.998;2022-11-15T16:42:57;2.53;;;1.80;;
13485;SDS011;6815;59.336;17.998;2022-11-15T16:45:24;3.40;;;1.93;;
13485;SDS011;6815;59.336;17.998;2022-11-15T16:47:51;5.20;;;2.27;;
13485;SDS011;6815;59.336;17.998;2022-11-15T16:50:26;4.70;;;1.90;;
13485;SDS011;6815;59.336;17.998;2022-11-15T16:52:56;4.67;;;1.87;;
13485;SDS011;6815;59.336;17.998;2022-11-15T16:55:23;3.00;;;1.97;;
13485;SDS011;6815;59.336;17.998;2022-11-15T16:57:50;2.80;;;1.67;;
13485;SDS011;6815;59.336;17.998;2022-11-15T17:00:17;3.70;;;1.40;;
13485;SDS011;6815;59.336;17.998;2022-11-15T17:02:44;3.70;;;1.67;;
13485;SDS011;6815;59.336;17.998;2022-11-15T17:05:10;2.17;;;1.50;;
13485;SDS011;6815;59.336;17.998;2022-11-15T17:07:37;1.53;;;1.10;;
13485;SDS011;6815;59.336;17.998;2022-11-15T17:10:03;3.00;;;1.23;;
13485;SDS011;6815;59.336;17.998;2022-11-15T17:12:28;2.57;;;1.53;;
13485;SDS011;6815;59.336;17.998;2022-11-15T17:14:55;1.80;;;1.30;;